Time;durP1;ratioP1;P1;durP2;ratioP2;P2;SDS_P1;SDS_P2;PMS_P1;PMS_P2;Temp;Humidity;BMP_temperature;BMP_pressure;BME280_temperature;BME280_humidity;BME280_pressure;Samples;Min_cycle;Max_cycle;Signal;HPM_P1;HPM_P2
2023/02/25 00:01:40;;;;;;;19.17;13.82;;;12.60;96.70;;;;;;5090429;28;20627;-72
2023/02/25 00:04:27;;;;;;;18.75;13.13;;;12.60;96.70;;;;;;5099586;28;20047;-75
2023/02/25 00:06:55;;;;;;;18.30;14.38;;;12.60;96.70;;;;;;5099649;27;20122;-75
2023/02/25 00:09:23;;;;;;;19.83;15.30;;;12.70;96.70;;;;;;5086082;28;20046;-74
2023/02/25 00:11:51;;;;;;;21.15;15.38;;;12.70;96.70;;;;;;5089387;28;20059;-71
2023/02/25 00:14:19;;;;;;;19.15;15.60;;;12.60;96.70;;;;;;5098386;28;20074;-72
2023/02/25 00:16:50;;;;;;;20.33;16.23;;;12.60;96.70;;;;;;5094070;28;20047;-72
2023/02/25 00:19:17;;;;;;;18.55;14.68;;;12.60;96.70;;;;;;5079405;28;20055;-71
2023/02/25 00:21:45;;;;;;;18.48;14.75;;;12.60;96.70;;;;;;5093580;28;20522;-72
2023/02/25 00:24:14;;;;;;;17.58;14.60;;;12.60;96.70;;;;;;5081586;28;20124;-75
2023/02/25 00:26:43;;;;;;;18.50;15.65;;;12.60;96.70;;;;;;5092955;28;20047;-74
2023/02/25 00:29:13;;;;;;;17.55;14.50;;;12.60;96.70;;;;;;5082387;28;20043;-75
2023/02/25 00:31:41;;;;;;;19.23;15.25;;;12.60;96.70;;;;;;5094702;28;20048;-75
2023/02/25 00:34:10;;;;;;;17.95;14.00;;;12.60;96.70;;;;;;5090439;28;20036;-72
2023/02/25 00:36:38;;;;;;;21.10;14.95;;;12.60;96.70;;;;;;5077585;28;20105;-72
2023/02/25 00:39:07;;;;;;;18.13;14.73;;;12.60;96.70;;;;;;5076185;28;20128;-72
2023/02/25 00:41:35;;;;;;;16.98;14.27;;;12.50;96.70;;;;;;5094442;28;20044;-72
2023/02/25 00:44:04;;;;;;;20.80;15.65;;;12.50;96.70;;;;;;5094491;28;20043;-75
2023/02/25 00:46:33;;;;;;;18.85;14.73;;;12.40;96.70;;;;;;5092115;28;20044;-73
2023/02/25 00:49:01;;;;;;;17.55;14.98;;;12.50;96.70;;;;;;5099165;28;20500;-72
2023/02/25 00:51:31;;;;;;;18.25;14.52;;;12.50;96.70;;;;;;5102254;28;20043;-72
2023/02/25 00:53:59;;;;;;;16.95;15.15;;;12.50;96.70;;;;;;5086302;28;20052;-72
2023/02/25 00:56:27;;;;;;;15.95;14.27;;;12.50;96.70;;;;;;5077848;28;20032;-72
2023/02/25 00:58:55;;;;;;;17.33;15.30;;;12.40;96.70;;;;;;5095018;28;20047;-72
2023/02/25 01:01:24;;;;;;;21.48;15.70;;;12.40;96.70;;;;;;5078500;28;20777;-73
2023/02/25 01:03:55;;;;;;;19.30;15.05;;;12.40;96.70;;;;;;5091463;28;20050;-76
2023/02/25 01:06:24;;;;;;;18.17;15.35;;;12.40;96.70;;;;;;5100227;28;20117;-74
2023/02/25 01:08:53;;;;;;;19.58;15.50;;;12.40;96.70;;;;;;5097608;28;20046;-75
2023/02/25 01:11:26;;;;;;;19.15;15.57;;;12.40;96.70;;;;;;5090105;28;20152;-75
2023/02/25 01:13:55;;;;;;;17.40;15.05;;;12.40;96.70;;;;;;5085720;28;20216;-71
2023/02/25 01:16:25;;;;;;;18.42;14.65;;;12.40;96.70;;;;;;5080386;28;20048;-71
2023/02/25 01:18:54;;;;;;;18.90;14.48;;;12.40;96.70;;;;;;5088227;28;20043;-72
2023/02/25 01:21:27;;;;;;;20.50;14.98;;;12.40;96.70;;;;;;5073819;28;20067;-72
2023/02/25 01:23:57;;;;;;;20.33;15.82;;;12.40;96.70;;;;;;5077284;28;20052;-75
2023/02/25 01:26:29;;;;;;;18.55;15.38;;;12.40;96.70;;;;;;5075649;28;20045;-72
2023/02/25 01:28:57;;;;;;;17.35;14.75;;;12.30;96.70;;;;;;5091553;28;20067;-71
2023/02/25 01:31:30;;;;;;;19.70;14.38;;;12.30;96.70;;;;;;5095817;28;20044;-73
2023/02/25 01:33:59;;;;;;;16.10;14.38;;;12.30;96.70;;;;;;5099864;27;20059;-75
2023/02/25 01:36:29;;;;;;;18.33;14.85;;;12.30;96.70;;;;;;5082625;28;20039;-75
2023/02/25 01:38:59;;;;;;;16.38;14.40;;;12.30;96.70;;;;;;5097565;28;20076;-75
2023/02/25 01:41:29;;;;;;;18.83;14.80;;;12.20;96.70;;;;;;5097979;28;20042;-74
2023/02/25 01:44:05;;;;;;;17.65;14.30;;;12.20;96.70;;;;;;5086920;28;21088;-72
2023/02/25 01:46:33;;;;;;;17.05;15.18;;;12.20;96.70;;;;;;5089942;28;20036;-75
2023/02/25 01:49:04;;;;;;;17.75;15.07;;;12.20;96.70;;;;;;5080327;28;20071;-74
2023/02/25 01:51:33;;;;;;;18.00;15.68;;;12.20;96.70;;;;;;5091519;28;20073;-75
2023/02/25 01:54:05;;;;;;;17.70;14.55;;;12.20;96.70;;;;;;5091349;28;20059;-75
2023/02/25 01:56:35;;;;;;;18.98;16.20;;;12.20;96.70;;;;;;5095243;28;20048;-75
2023/02/25 01:59:04;;;;;;;21.15;16.88;;;12.30;96.70;;;;;;5091997;28;20051;-75
2023/02/25 02:01:35;;;;;;;20.40;15.88;;;12.30;96.70;;;;;;5093502;28;20036;-75
2023/02/25 02:04:05;;;;;;;21.67;15.38;;;12.30;96.70;;;;;;5085808;28;20036;-75
2023/02/25 02:06:38;;;;;;;22.63;16.60;;;12.40;96.70;;;;;;5097172;28;20044;-75
2023/02/25 02:09:12;;;;;;;19.00;16.00;;;12.40;96.70;;;;;;5095396;28;20047;-75
2023/02/25 02:11:40;;;;;;;23.17;16.35;;;12.40;96.70;;;;;;5092240;28;20059;-76
2023/02/25 02:14:12;;;;;;;21.33;16.75;;;12.30;96.70;;;;;;5090123;28;20651;-72
2023/02/25 02:17:04;;;;;;;19.13;16.77;;;12.40;96.70;;;;;;5079619;28;20051;-72
2023/02/25 02:19:56;;;;;;;21.17;16.73;;;12.40;96.70;;;;;;5080336;28;20037;-72
2023/02/25 02:22:29;;;;;;;20.48;15.40;;;12.30;96.70;;;;;;5088964;28;20625;-74
2023/02/25 02:25:36;;;;;;;19.92;16.15;;;12.30;96.70;;;;;;5088531;28;20052;-74
2023/02/25 02:28:41;;;;;;;18.25;15.35;;;12.40;96.70;;;;;;5109011;27;20051;-73
2023/02/25 02:31:23;;;;;;;19.45;15.20;;;12.40;96.70;;;;;;5100915;28;20055;-73
2023/02/25 02:33:56;;;;;;;20.15;15.40;;;12.40;96.70;;;;;;5093428;28;20040;-73
2023/02/25 02:36:34;;;;;;;18.15;15.45;;;12.40;96.70;;;;;;5074913;28;20065;-76
2023/02/25 02:39:08;;;;;;;19.45;15.27;;;12.40;96.70;;;;;;5096389;28;20051;-72
2023/02/25 02:41:40;;;;;;;18.05;15.73;;;12.40;96.70;;;;;;5102544;28;20053;-72
2023/02/25 02:44:15;;;;;;;16.27;14.45;;;12.40;96.70;;;;;;5087312;28;20515;-73
2023/02/25 02:46:49;;;;;;;16.70;14.85;;;12.40;96.70;;;;;;5101294;28;20046;-75
2023/02/25 02:49:23;;;;;;;17.17;14.82;;;12.40;96.70;;;;;;5094185;28;20043;-74
2023/02/25 02:51:56;;;;;;;18.23;15.35;;;12.40;96.70;;;;;;5095854;28;20039;-74
2023/02/25 02:54:25;;;;;;;15.88;13.93;;;12.40;96.70;;;;;;5099636;28;20138;-75
2023/02/25 02:56:56;;;;;;;17.67;14.75;;;12.40;96.70;;;;;;5100650;28;20417;-73
2023/02/25 02:59:28;;;;;;;18.27;14.23;;;12.40;96.70;;;;;;5097071;28;20058;-72
2023/02/25 03:02:03;;;;;;;19.95;15.38;;;12.40;96.70;;;;;;5096190;28;20067;-72
2023/02/25 03:04:36;;;;;;;15.57;13.75;;;12.40;96.70;;;;;;5084939;28;20047;-72
2023/02/25 03:07:06;;;;;;;23.15;14.70;;;12.40;96.70;;;;;;5099271;28;20043;-72
2023/02/25 03:09:38;;;;;;;17.52;14.15;;;12.40;96.70;;;;;;5096091;28;20090;-72
2023/02/25 03:12:07;;;;;;;16.63;13.80;;;12.40;96.70;;;;;;5077576;28;20091;-73
2023/02/25 03:14:36;;;;;;;17.20;14.30;;;12.40;96.70;;;;;;5075006;28;20391;-75
2023/02/25 03:17:10;;;;;;;18.05;14.98;;;12.40;96.70;;;;;;5094268;28;20051;-72
2023/02/25 03:19:41;;;;;;;14.52;12.88;;;12.40;96.70;;;;;;5092411;28;20047;-71
2023/02/25 03:22:13;;;;;;;15.88;13.00;;;12.40;96.70;;;;;;5094713;28;20048;-74
2023/02/25 03:24:45;;;;;;;16.80;13.07;;;12.40;96.70;;;;;;5094689;28;20048;-72
2023/02/25 03:27:23;;;;;;;17.05;13.68;;;12.50;96.70;;;;;;5091364;28;20592;-72
2023/02/25 03:30:01;;;;;;;16.00;14.10;;;12.40;96.70;;;;;;5088581;28;20052;-72
2023/02/25 03:32:35;;;;;;;18.48;13.82;;;12.40;96.70;;;;;;5087454;28;20642;-71
2023/02/25 03:35:08;;;;;;;18.77;14.73;;;12.40;96.70;;;;;;5096382;28;20043;-76
2023/02/25 03:37:38;;;;;;;15.60;13.85;;;12.40;96.70;;;;;;5091608;28;20494;-72
2023/02/25 03:40:10;;;;;;;16.23;14.35;;;12.40;96.70;;;;;;5098800;28;20561;-73
2023/02/25 03:42:43;;;;;;;16.17;14.07;;;12.40;96.70;;;;;;5075030;28;20051;-73
2023/02/25 03:45:13;;;;;;;16.92;14.75;;;12.40;96.70;;;;;;5087249;28;20051;-73
2023/02/25 03:47:43;;;;;;;14.98;12.95;;;12.40;96.70;;;;;;5089897;28;20112;-73
2023/02/25 03:50:18;;;;;;;16.40;13.55;;;12.40;96.70;;;;;;5085665;28;20045;-73
2023/02/25 03:52:52;;;;;;;15.90;13.57;;;12.40;96.70;;;;;;5062597;28;20533;-72
2023/02/25 03:55:41;;;;;;;16.77;13.88;;;12.40;96.70;;;;;;5099647;28;20042;-72
2023/02/25 03:58:09;;;;;;;17.58;14.27;;;12.40;96.70;;;;;;5089153;28;20482;-73
2023/02/25 04:00:41;;;;;;;16.90;14.45;;;12.40;96.70;;;;;;5084646;28;20036;-72
2023/02/25 04:03:11;;;;;;;19.05;13.82;;;12.40;96.70;;;;;;5083395;28;20126;-73
2023/02/25 04:05:39;;;;;;;16.80;14.35;;;12.30;96.70;;;;;;5082522;28;20047;-73
2023/02/25 04:08:14;;;;;;;17.20;13.90;;;12.30;96.70;;;;;;5079208;28;20055;-73
2023/02/25 04:10:43;;;;;;;16.35;13.10;;;12.30;96.70;;;;;;5090231;28;20032;-73
2023/02/25 04:13:14;;;;;;;18.17;13.90;;;12.30;96.70;;;;;;5067989;28;20048;-72
2023/02/25 04:15:42;;;;;;;17.05;13.98;;;12.30;96.70;;;;;;5089339;28;20115;-76
2023/02/25 04:18:13;;;;;;;16.67;12.95;;;12.20;96.70;;;;;;5082146;28;20058;-74
2023/02/25 04:20:41;;;;;;;16.95;14.02;;;12.20;96.70;;;;;;5092983;28;20036;-75
2023/02/25 04:23:12;;;;;;;14.63;13.02;;;12.20;96.70;;;;;;5098307;28;20043;-75
2023/02/25 04:25:41;;;;;;;15.95;14.10;;;12.30;96.70;;;;;;5085248;28;20077;-76
2023/02/25 04:28:09;;;;;;;15.05;13.45;;;12.30;96.70;;;;;;5077512;28;20139;-75
2023/02/25 04:30:37;;;;;;;17.58;14.35;;;12.20;96.70;;;;;;5082938;28;20531;-75
2023/02/25 04:33:05;;;;;;;16.67;13.55;;;12.20;96.70;;;;;;5088041;28;20547;-75
2023/02/25 04:35:35;;;;;;;17.90;13.55;;;12.30;96.70;;;;;;5088416;28;20032;-75
2023/02/25 04:38:03;;;;;;;16.00;13.65;;;12.20;96.70;;;;;;5088616;28;20048;-75
2023/02/25 04:40:36;;;;;;;15.98;14.27;;;12.20;96.70;;;;;;5079348;28;20047;-75
2023/02/25 04:43:04;;;;;;;17.50;14.27;;;12.20;96.70;;;;;;5089574;28;20092;-76
2023/02/25 04:45:32;;;;;;;19.70;15.35;;;12.20;96.70;;;;;;5091490;28;20036;-76
2023/02/25 04:48:00;;;;;;;15.93;13.32;;;12.20;96.70;;;;;;5085583;28;20044;-75
2023/02/25 04:50:28;;;;;;;17.33;14.38;;;12.20;96.70;;;;;;5088591;28;20036;-75
2023/02/25 04:53:03;;;;;;;17.02;13.57;;;12.30;96.70;;;;;;5076544;28;20052;-75
2023/02/25 04:55:31;;;;;;;18.10;14.02;;;12.30;96.70;;;;;;5092597;28;20602;-75
2023/02/25 04:58:00;;;;;;;18.42;13.70;;;12.30;96.70;;;;;;5090907;28;20045;-75
2023/02/25 05:00:28;;;;;;;19.33;14.48;;;12.30;96.70;;;;;;5080545;28;20043;-75
2023/02/25 05:02:57;;;;;;;16.00;14.25;;;12.30;96.70;;;;;;5100561;28;20054;-77
2023/02/25 05:05:26;;;;;;;17.85;14.00;;;12.30;96.70;;;;;;5093464;28;20043;-75
2023/02/25 05:07:53;;;;;;;14.60;12.50;;;12.20;96.70;;;;;;5094385;28;20031;-75
2023/02/25 05:10:23;;;;;;;16.30;13.35;;;12.30;96.70;;;;;;5077535;28;20041;-72
2023/02/25 05:12:51;;;;;;;16.35;13.85;;;12.30;96.70;;;;;;5090964;28;20513;-72
2023/02/25 05:15:19;;;;;;;16.90;13.95;;;12.30;96.70;;;;;;5095549;28;20131;-72
2023/02/25 05:17:47;;;;;;;17.25;13.10;;;12.30;96.70;;;;;;5083548;28;20044;-72
2023/02/25 05:20:16;;;;;;;15.45;13.60;;;12.20;96.70;;;;;;5073740;28;20078;-75
2023/02/25 05:22:44;;;;;;;16.35;13.48;;;12.20;96.70;;;;;;5090045;28;20054;-75
2023/02/25 05:25:12;;;;;;;17.38;13.95;;;12.20;96.70;;;;;;5095554;28;20044;-72
2023/02/25 05:27:41;;;;;;;14.25;12.75;;;12.20;96.70;;;;;;5086523;28;20062;-73
2023/02/25 05:30:11;;;;;;;17.25;13.50;;;12.20;96.70;;;;;;5086722;28;20119;-73
2023/02/25 05:32:39;;;;;;;15.65;13.60;;;12.20;96.70;;;;;;5100112;28;20040;-72
2023/02/25 05:35:08;;;;;;;13.20;11.80;;;12.20;96.70;;;;;;5097043;28;20052;-72
2023/02/25 05:37:37;;;;;;;15.68;13.40;;;12.20;96.70;;;;;;5089398;28;20056;-73
2023/02/25 05:40:08;;;;;;;15.00;12.93;;;12.10;96.70;;;;;;5094978;28;20067;-72
2023/02/25 05:42:36;;;;;;;15.25;12.55;;;12.10;96.70;;;;;;5095540;28;20046;-74
2023/02/25 05:45:07;;;;;;;14.43;12.90;;;12.00;96.70;;;;;;5098334;28;20059;-73
2023/02/25 05:47:36;;;;;;;15.10;12.93;;;12.00;96.70;;;;;;5088405;28;20067;-73
2023/02/25 05:50:04;;;;;;;15.73;13.10;;;12.00;96.70;;;;;;5090215;28;20120;-73
2023/02/25 05:52:32;;;;;;;15.27;13.68;;;12.00;96.70;;;;;;5095320;28;20097;-73
2023/02/25 05:55:01;;;;;;;15.73;13.00;;;12.00;96.70;;;;;;5103696;28;20913;-72
2023/02/25 05:57:29;;;;;;;16.90;12.30;;;12.00;96.70;;;;;;5096097;28;20097;-73
2023/02/25 05:59:57;;;;;;;14.25;12.70;;;12.00;96.70;;;;;;5094925;28;20053;-73
2023/02/25 06:02:26;;;;;;;13.98;12.40;;;12.00;96.70;;;;;;5100590;27;20049;-76
2023/02/25 06:04:55;;;;;;;14.40;12.52;;;12.00;96.70;;;;;;5092942;28;20046;-75
2023/02/25 06:07:23;;;;;;;15.45;13.73;;;12.10;96.70;;;;;;5096852;28;20120;-75
2023/02/25 06:09:51;;;;;;;17.23;13.77;;;12.10;96.70;;;;;;5101535;28;20435;-75
2023/02/25 06:12:19;;;;;;;16.83;12.73;;;12.10;96.70;;;;;;5098692;28;20127;-73
2023/02/25 06:14:47;;;;;;;15.95;12.75;;;12.10;96.70;;;;;;5093571;28;20086;-73
2023/02/25 06:17:15;;;;;;;16.63;12.38;;;12.00;96.70;;;;;;5093055;28;20044;-73
2023/02/25 06:19:44;;;;;;;16.02;12.77;;;12.00;96.70;;;;;;5086803;28;20584;-73
2023/02/25 06:22:12;;;;;;;17.77;12.27;;;12.10;96.70;;;;;;5103161;28;20044;-73
2023/02/25 06:24:41;;;;;;;15.82;13.68;;;12.10;96.70;;;;;;5097355;28;20066;-73
2023/02/25 06:27:09;;;;;;;16.95;13.52;;;12.10;96.70;;;;;;5100009;27;20070;-73
2023/02/25 06:29:40;;;;;;;17.05;13.55;;;12.10;96.70;;;;;;5097516;28;20052;-72
2023/02/25 06:32:09;;;;;;;14.75;13.02;;;12.10;96.70;;;;;;5098156;28;20132;-73
2023/02/25 06:34:37;;;;;;;16.55;14.05;;;12.10;96.70;;;;;;5099170;28;20070;-73
2023/02/25 06:37:07;;;;;;;16.17;13.32;;;12.10;96.70;;;;;;5090313;28;20047;-73
2023/02/25 06:39:45;;;;;;;14.13;12.57;;;12.10;96.70;;;;;;5073259;28;20117;-72
2023/02/25 06:42:13;;;;;;;14.38;11.68;;;12.10;96.70;;;;;;5089234;28;20097;-73
2023/02/25 06:44:41;;;;;;;16.38;12.55;;;12.10;96.70;;;;;;5076797;28;20047;-72
2023/02/25 06:47:09;;;;;;;13.65;12.15;;;12.10;96.70;;;;;;5095665;28;20040;-73
2023/02/25 06:49:37;;;;;;;18.80;14.02;;;12.10;96.70;;;;;;5092046;28;20408;-72
2023/02/25 06:52:06;;;;;;;19.10;14.57;;;12.10;96.70;;;;;;5097257;28;20040;-74
2023/02/25 06:54:35;;;;;;;18.73;14.55;;;12.20;96.70;;;;;;5068332;28;20122;-73
2023/02/25 06:57:03;;;;;;;18.15;13.52;;;12.20;96.70;;;;;;5091129;28;20803;-74
2023/02/25 06:59:34;;;;;;;16.85;12.45;;;12.20;96.70;;;;;;5089241;28;20568;-75
2023/02/25 07:02:02;;;;;;;14.00;11.52;;;12.20;96.70;;;;;;5092981;28;20696;-73
2023/02/25 07:04:30;;;;;;;14.82;11.45;;;12.20;96.70;;;;;;5070024;28;20033;-75
2023/02/25 07:06:58;;;;;;;16.63;11.70;;;12.20;96.70;;;;;;5096781;28;20454;-72
2023/02/25 07:09:28;;;;;;;12.35;11.05;;;12.20;96.70;;;;;;5087315;28;20035;-73
2023/02/25 07:11:56;;;;;;;12.95;11.18;;;12.20;96.70;;;;;;5083677;28;20051;-73
2023/02/25 07:14:24;;;;;;;16.27;13.52;;;12.20;96.70;;;;;;5081844;28;20501;-72
2023/02/25 07:16:52;;;;;;;17.45;13.30;;;12.20;96.70;;;;;;5085829;28;20189;-71
2023/02/25 07:19:20;;;;;;;16.25;13.82;;;12.20;96.70;;;;;;5081939;28;20104;-72
2023/02/25 07:21:48;;;;;;;15.98;13.68;;;12.20;96.70;;;;;;5090672;28;20059;-72
2023/02/25 07:24:16;;;;;;;15.20;13.25;;;12.20;96.70;;;;;;5093782;28;20050;-72
2023/02/25 07:26:46;;;;;;;17.83;14.20;;;12.20;96.70;;;;;;5068110;28;20075;-73
2023/02/25 07:29:15;;;;;;;14.55;12.85;;;12.20;96.70;;;;;;5077602;28;20054;-73
2023/02/25 07:31:44;;;;;;;18.13;13.15;;;12.20;96.70;;;;;;5093198;28;21084;-72
2023/02/25 07:34:13;;;;;;;15.65;12.20;;;12.20;96.70;;;;;;5097345;28;20047;-73
2023/02/25 07:36:41;;;;;;;14.07;12.27;;;12.20;96.70;;;;;;5083924;28;20145;-72
2023/02/25 07:39:11;;;;;;;17.50;13.60;;;12.20;96.70;;;;;;5102683;28;20051;-72
2023/02/25 07:41:39;;;;;;;16.42;13.48;;;12.30;96.70;;;;;;5100484;28;20446;-71
2023/02/25 07:44:12;;;;;;;18.20;14.63;;;12.30;96.70;;;;;;5090071;28;20040;-72
2023/02/25 07:46:40;;;;;;;36.50;30.45;;;12.40;96.70;;;;;;5100839;28;20488;-71
2023/02/25 07:49:08;;;;;;;18.15;16.17;;;12.30;96.70;;;;;;5086452;28;20047;-71
2023/02/25 07:51:36;;;;;;;17.73;14.20;;;12.30;96.70;;;;;;5080555;28;20040;-72
2023/02/25 07:54:04;;;;;;;16.70;14.02;;;12.30;96.70;;;;;;5066801;28;20047;-70
2023/02/25 07:56:33;;;;;;;15.75;14.05;;;12.40;96.70;;;;;;5080344;28;20044;-72
2023/02/25 07:59:01;;;;;;;19.10;14.20;;;12.40;96.70;;;;;;5078219;28;20669;-73
2023/02/25 08:01:33;;;;;;;14.32;11.98;;;12.40;96.70;;;;;;5076093;28;20044;-71
2023/02/25 08:04:03;;;;;;;15.98;13.60;;;12.40;96.70;;;;;;5081028;28;20564;-73
2023/02/25 08:06:34;;;;;;;14.77;13.20;;;12.50;96.70;;;;;;5083759;28;20035;-70
2023/02/25 08:09:04;;;;;;;15.88;12.48;;;12.50;96.70;;;;;;5076553;28;20734;-70
2023/02/25 08:11:32;;;;;;;17.10;12.70;;;12.60;96.70;;;;;;5062128;28;20053;-70
2023/02/25 08:14:00;;;;;;;15.02;12.27;;;12.50;96.70;;;;;;5082531;28;20259;-71
2023/02/25 08:16:29;;;;;;;17.80;13.13;;;12.60;96.70;;;;;;5081347;28;20043;-72
2023/02/25 08:18:57;;;;;;;16.05;13.20;;;12.60;96.70;;;;;;5060822;28;20055;-71
2023/02/25 08:21:25;;;;;;;15.68;12.60;;;12.60;96.70;;;;;;5079931;28;20486;-72
2023/02/25 08:23:53;;;;;;;15.40;12.68;;;12.60;96.70;;;;;;5076793;28;20044;-71
2023/02/25 08:26:23;;;;;;;13.77;11.73;;;12.60;96.70;;;;;;5060510;28;20048;-72
2023/02/25 08:28:51;;;;;;;17.13;12.93;;;12.60;96.70;;;;;;5078129;28;20043;-72
2023/02/25 08:31:20;;;;;;;16.85;12.52;;;12.70;96.70;;;;;;5085168;28;20066;-73
2023/02/25 08:33:51;;;;;;;14.35;12.38;;;12.70;96.70;;;;;;5082920;28;20464;-72
2023/02/25 08:36:21;;;;;;;15.30;12.45;;;12.70;96.70;;;;;;5077623;28;20129;-72
2023/02/25 08:38:50;;;;;;;14.40;12.00;;;12.70;96.70;;;;;;5066125;28;20457;-72
2023/02/25 08:41:20;;;;;;;15.68;12.18;;;12.70;96.70;;;;;;5081089;28;20032;-71
2023/02/25 08:43:50;;;;;;;16.15;12.38;;;12.80;96.70;;;;;;5075621;28;20099;-72
2023/02/25 08:46:18;;;;;;;15.48;12.45;;;12.80;96.70;;;;;;5067247;28;20048;-72
2023/02/25 08:48:50;;;;;;;14.27;11.60;;;12.80;96.70;;;;;;5082198;28;20043;-72
2023/02/25 08:51:19;;;;;;;15.23;11.95;;;12.80;96.70;;;;;;5088977;28;20040;-72
2023/02/25 08:53:47;;;;;;;15.65;12.65;;;12.80;96.70;;;;;;5083540;28;20653;-72
2023/02/25 08:56:16;;;;;;;16.17;11.25;;;12.80;96.70;;;;;;5085252;28;20044;-72
2023/02/25 08:58:43;;;;;;;16.60;11.60;;;12.80;96.70;;;;;;5081502;28;20155;-72
2023/02/25 09:01:14;;;;;;;14.13;11.43;;;12.80;96.70;;;;;;5076598;28;20479;-72
2023/02/25 09:03:51;;;;;;;17.45;12.90;;;12.90;96.70;;;;;;5079908;28;20119;-72
2023/02/25 09:06:23;;;;;;;14.40;11.05;;;12.90;96.70;;;;;;5081575;28;20091;-72
2023/02/25 09:08:51;;;;;;;14.05;10.85;;;13.00;96.70;;;;;;5070835;28;20051;-72
2023/02/25 09:11:19;;;;;;;15.82;11.73;;;13.00;96.70;;;;;;5063368;28;20083;-72
2023/02/25 09:13:48;;;;;;;14.43;11.45;;;12.90;96.70;;;;;;5081046;28;20045;-72
2023/02/25 09:16:16;;;;;;;14.38;11.38;;;13.00;96.70;;;;;;5088482;28;20040;-72
2023/02/25 09:18:44;;;;;;;12.82;10.38;;;13.00;96.70;;;;;;5076666;28;20048;-72
2023/02/25 09:21:13;;;;;;;20.55;15.20;;;13.00;96.70;;;;;;5078767;28;20724;-72
2023/02/25 09:23:42;;;;;;;16.67;11.45;;;13.00;96.70;;;;;;5084572;28;20130;-74
2023/02/25 09:26:10;;;;;;;15.48;13.23;;;13.00;96.70;;;;;;5067203;28;20043;-72
2023/02/25 09:28:38;;;;;;;14.30;11.98;;;13.00;96.70;;;;;;5089719;28;20051;-73
2023/02/25 09:31:06;;;;;;;18.77;11.30;;;12.90;96.70;;;;;;5082580;28;20505;-73
2023/02/25 09:33:35;;;;;;;14.18;11.40;;;12.90;96.70;;;;;;5073278;28;20448;-74
2023/02/25 09:36:05;;;;;;;14.20;11.77;;;12.90;96.70;;;;;;5095031;28;20564;-74
2023/02/25 09:38:33;;;;;;;17.30;12.00;;;13.00;96.70;;;;;;5077217;28;20566;-71
2023/02/25 09:41:03;;;;;;;15.32;12.13;;;13.00;96.70;;;;;;5061958;28;20140;-74
2023/02/25 09:43:38;;;;;;;17.67;13.52;;;13.00;96.70;;;;;;5092481;28;20054;-72
2023/02/25 09:46:12;;;;;;;19.20;14.10;;;13.00;96.70;;;;;;5078985;28;20047;-73
2023/02/25 09:48:51;;;;;;;20.60;13.68;;;13.10;96.70;;;;;;5093337;28;20036;-73
2023/02/25 09:51:21;;;;;;;17.05;13.68;;;13.10;96.70;;;;;;5079210;28;20494;-73
2023/02/25 09:53:53;;;;;;;18.75;13.38;;;13.10;96.70;;;;;;5078736;28;20522;-72
2023/02/25 09:56:26;;;;;;;17.13;13.70;;;13.20;96.70;;;;;;5093003;28;20079;-73
2023/02/25 09:58:56;;;;;;;18.75;12.82;;;13.20;96.70;;;;;;5100347;28;20675;-73
2023/02/25 10:01:33;;;;;;;17.52;14.27;;;13.20;96.70;;;;;;5078688;28;20043;-73
2023/02/25 10:04:08;;;;;;;16.48;14.73;;;13.30;96.70;;;;;;5062855;28;20059;-73
2023/02/25 10:06:38;;;;;;;18.45;14.55;;;13.40;96.70;;;;;;5098697;28;20171;-72
2023/02/25 10:09:17;;;;;;;20.15;15.07;;;13.40;96.70;;;;;;5082785;28;20488;-74
2023/02/25 10:11:52;;;;;;;18.35;14.55;;;13.50;96.70;;;;;;5081180;28;20052;-74
2023/02/25 10:14:33;;;;;;;19.23;15.82;;;13.50;96.70;;;;;;5089262;28;20481;-74
2023/02/25 10:17:10;;;;;;;18.90;14.40;;;13.60;96.70;;;;;;5088461;28;20043;-74
2023/02/25 10:19:49;;;;;;;;;;;13.70;96.70;;;;;;5099215;28;20660;-72
2023/02/25 10:22:33;;;;;;;17.75;14.65;;;13.80;96.70;;;;;;5076659;28;19931;-74
2023/02/25 10:25:10;;;;;;;19.08;14.93;;;13.90;96.70;;;;;;5097598;28;20485;-73
2023/02/25 10:27:44;;;;;;;18.38;14.73;;;13.90;96.70;;;;;;5100089;28;20049;-73
2023/02/25 10:30:18;;;;;;;17.50;14.10;;;13.90;96.70;;;;;;5094180;28;20040;-73
2023/02/25 10:32:47;;;;;;;39.92;31.38;;;13.90;96.70;;;;;;5083643;28;20070;-74
2023/02/25 10:35:19;;;;;;;23.42;17.95;;;13.90;96.70;;;;;;5084328;28;20548;-74
2023/02/25 10:37:47;;;;;;;22.67;18.98;;;13.90;96.70;;;;;;5090791;28;20074;-74
2023/02/25 10:40:17;;;;;;;24.77;18.52;;;13.90;96.70;;;;;;5082662;28;20619;-74
2023/02/25 10:42:49;;;;;;;45.08;34.47;;;13.90;96.70;;;;;;5088535;28;20044;-73
2023/02/25 10:45:22;;;;;;;36.88;28.08;;;13.90;96.70;;;;;;5084086;28;20382;-72
2023/02/25 10:47:57;;;;;;;23.88;18.48;;;13.90;96.70;;;;;;5092831;28;20117;-73
2023/02/25 10:50:31;;;;;;;23.10;17.40;;;13.90;96.70;;;;;;5077769;28;20054;-73
2023/02/25 10:53:14;;;;;;;21.77;15.65;;;13.80;96.70;;;;;;5090645;28;20122;-73
2023/02/25 10:55:53;;;;;;;20.45;15.25;;;13.80;96.70;;;;;;5080283;28;20055;-76
2023/02/25 10:58:43;;;;;;;21.55;14.85;;;13.80;96.70;;;;;;5083316;28;20044;-73
2023/02/25 11:01:14;;;;;;;24.23;15.13;;;13.80;96.70;;;;;;5080367;28;20044;-73
2023/02/25 11:03:52;;;;;;;20.55;15.98;;;13.80;96.70;;;;;;5059495;28;20391;-73
2023/02/25 11:06:24;;;;;;;20.67;15.15;;;13.90;96.70;;;;;;5101096;28;20123;-72
2023/02/25 11:08:57;;;;;;;23.63;15.00;;;13.90;96.70;;;;;;5101548;27;20044;-73
2023/02/25 11:11:26;;;;;;;21.83;15.70;;;13.90;96.70;;;;;;5024399;28;20663;-73
2023/02/25 11:14:05;;;;;;;19.20;14.75;;;13.90;96.70;;;;;;5079982;28;20049;-73
2023/02/25 11:16:35;;;;;;;20.90;15.18;;;13.80;96.70;;;;;;5092471;28;20552;-73
2023/02/25 11:19:13;;;;;;;19.58;14.10;;;13.90;96.70;;;;;;5090157;28;20054;-73
2023/02/25 11:21:42;;;;;;;25.52;15.70;;;13.90;96.70;;;;;;5087418;28;20052;-73
2023/02/25 11:24:14;;;;;;;21.15;16.45;;;13.90;96.70;;;;;;5085010;28;20051;-73
2023/02/25 11:26:44;;;;;;;23.27;16.50;;;13.90;96.70;;;;;;5095341;28;20119;-73
2023/02/25 11:29:19;;;;;;;25.55;15.70;;;13.90;96.70;;;;;;5086278;28;20643;-73
2023/02/25 11:31:51;;;;;;;23.50;15.65;;;13.90;96.70;;;;;;5093215;28;20048;-73
2023/02/25 11:34:22;;;;;;;19.45;13.82;;;13.90;96.70;;;;;;5093466;28;20051;-73
2023/02/25 11:36:51;;;;;;;21.08;14.98;;;13.90;96.70;;;;;;5095551;28;20051;-73
2023/02/25 11:39:21;;;;;;;21.75;14.18;;;13.90;96.70;;;;;;5069407;28;20499;-74
2023/02/25 11:41:51;;;;;;;23.00;15.85;;;13.90;96.70;;;;;;5066315;28;20075;-75
2023/02/25 11:44:25;;;;;;;21.50;14.73;;;13.90;96.70;;;;;;5075012;28;20036;-75
2023/02/25 11:47:03;;;;;;;21.23;15.95;;;13.90;96.70;;;;;;5081096;28;20063;-75
2023/02/25 11:49:47;;;;;;;19.73;14.23;;;13.90;96.70;;;;;;5078354;28;20044;-76
2023/02/25 11:52:24;;;;;;;18.10;13.60;;;13.90;96.70;;;;;;5085796;28;20572;-75
2023/02/25 11:55:03;;;;;;;17.08;13.90;;;13.90;96.70;;;;;;5064543;28;20064;-75
2023/02/25 11:57:43;;;;;;;18.88;14.13;;;13.90;96.70;;;;;;5099597;28;20144;-75
2023/02/25 12:00:24;;;;;;;17.70;13.43;;;13.90;96.70;;;;;;5097758;28;20047;-76
2023/02/25 12:03:09;;;;;;;19.90;14.15;;;13.90;96.70;;;;;;5084501;28;20602;-77
2023/02/25 12:05:51;;;;;;;20.90;13.65;;;13.80;96.70;;;;;;5102539;28;20441;-76
2023/02/25 12:08:38;;;;;;;21.17;14.48;;;13.80;96.70;;;;;;5087336;28;20413;-75
2023/02/25 12:11:42;;;;;;;18.85;14.52;;;13.80;96.70;;;;;;5084042;28;20072;-77
2023/02/25 12:14:37;;;;;;;21.88;15.40;;;13.70;96.70;;;;;;5102698;28;20062;-75
2023/02/25 12:17:59;;;;;;;19.48;15.38;;;13.70;96.70;;;;;;5101122;28;20047;-79
2023/02/25 12:21:04;;;;;;;28.20;22.38;;;13.70;96.70;;;;;;5075470;28;20043;-77
2023/02/25 12:24:14;;;;;;;21.83;17.15;;;13.70;96.70;;;;;;5085950;28;20037;-79
2023/02/25 12:27:20;;;;;;;22.33;16.48;;;13.70;96.70;;;;;;5098163;28;20054;-76
2023/02/25 12:30:24;;;;;;;22.73;16.55;;;13.70;96.70;;;;;;5052081;28;20091;-76
2023/02/25 12:33:06;;;;;;;21.52;16.50;;;13.70;96.70;;;;;;5062965;28;20052;-76
2023/02/25 12:35:55;;;;;;;20.75;16.88;;;13.60;96.70;;;;;;5069616;28;20143;-77
2023/02/25 12:39:07;;;;;;;18.48;16.52;;;13.60;96.70;;;;;;5074929;28;20057;-76
2023/02/25 12:41:45;;;;;;;22.02;15.55;;;13.60;96.70;;;;;;5079421;28;20056;-76
2023/02/25 12:44:55;;;;;;;19.40;15.52;;;13.60;96.70;;;;;;5075373;28;20047;-75
2023/02/25 12:47:29;;;;;;;21.15;16.10;;;13.60;96.70;;;;;;5100596;28;20040;-76
2023/02/25 12:50:18;;;;;;;25.98;15.65;;;13.60;96.70;;;;;;5074565;28;20148;-76
2023/02/25 12:53:02;;;;;;;23.75;15.82;;;13.60;96.70;;;;;;5088495;28;20184;-75
2023/02/25 12:55:51;;;;;;;19.08;15.40;;;13.60;96.70;;;;;;5091734;28;20052;-75